• Join FlightAware (Why Join?)
  • Login
  • US Flag 
05:12PM EST


 

Airport Tracker/Info


-or-


 

Live Flight TrackerFlight Track Log ✈ N81AX ✈ 01-May-2013 ✈ KJYM - KICT

Flight Track Log - Related Links

Times and Time Zones

All times are in EDT time to prevent confusion due to time zone crossing. See the N81AX flight status page for this flight to view local times or setup timezone preferences in your user account.

Time Position Orientation Groundspeed Altitude Reporting Facility
EDT Latitude Longitude Course Direction KTS MPH feet Rate Location/Type
04:56PM 41.8883 -84.7486 253° West 289 333 4,800  Level Chicago Center
04:57PM 41.8606 -84.8472 249° West 291 335 4,800 3,540 Level Chicago Center
04:58PM 41.8425 -84.9544 257° West 298 343 12,200 5,400 Climbing Chicago Center
04:59PM 41.8122 -85.0778 252° West 344 396 16,000 2,940 Climbing Chicago Center
05:00PM 41.7786 -85.2028 250° West 357 411 18,400 2,280 Climbing Chicago Center
05:01PM 41.7387 -85.2433 253° West  Level FlightAware Approximate
05:01PM 41.7297 -85.3661 248° West 400 460 20,900  Level Chicago Center
05:02PM 41.6881 -85.5067 248° West 419 482 23,400 2,280 Climbing Chicago Center
05:03PM 41.6531 -85.6531 252° West 422 486 25,700 2,460 Climbing Chicago Center
05:04PM 41.6111 -85.8342 253° West 428 493 28,500 2,460 Climbing Chicago Center
05:05PM 41.5731 -85.9817 251° West 424 488 30,800 1,860 Climbing Chicago Center
05:06PM 41.5317 -86.1283 249° West 425 489 32,400 1,500 Climbing Chicago Center
05:07PM 41.4831 -86.2742 246° West 431 496 33,900 1,200 Climbing Chicago Center
05:08PM 41.4389 -86.4267 249° West 441 507 35,000 960 Climbing Chicago Center
05:09PM 41.3931 -86.5814 248° West 449 517 35,900 1,320 Climbing Chicago Center
05:10PM 41.3392 -86.7719 249° West 452 520 37,800 1,380 Climbing Chicago Center
05:12PM 41.2958 -86.9217 249° West 438 504 38,800 540 Climbing Chicago Center
05:13PM 41.2475 -87.0750 247° West 449 517 39,000 720 Climbing Chicago Center
05:14PM 41.2014 -87.2283 248° West 451 519 40,400 1,260 Climbing Chicago Center
05:15PM 41.1592 -87.3767 249° West 438 504 41,700 600 Climbing Chicago Center
05:16PM 41.1075 -87.5519 249° West 428 493 41,700  Level Chicago Center
05:17PM 41.0631 -87.6997 248° West 432 497 41,800 240 Climbing Chicago Center
05:18PM 41.0239 -87.8503 251° West 431 496 42,300 360 Climbing Chicago Center
05:19PM 40.9875 -88.0000 252° West 428 493 42,600 240 Climbing Chicago Center
05:20PM 40.9453 -88.1458 249° West 426 490 42,800 240 Climbing Chicago Center
05:21PM 40.9033 -88.2911 249° West 424 488 43,100 60 Climbing Chicago Center
05:22PM 40.8600 -88.4375 249° West 427 491 43,000 -60 Descending Chicago Center
05:23PM 40.8056 -88.6117 248° West 429 494 43,000  Level Chicago Center
05:24PM 40.7614 -88.7569 248° West 428 493 43,000  Level Chicago Center
05:25PM 40.7189 -88.8922 248° West 433 498 43,000  Level Chicago Center
05:26PM 40.6736 -89.0383 248° West 433 498 43,000  Level Chicago Center
05:27PM 40.6189 -89.2158 248° West 435 501 43,000  Level Chicago Center
05:28PM 40.5742 -89.3639 248° West 434 499 43,000  Level Chicago Center
05:29PM 40.5294 -89.5131 249° West 435 501 43,000  Level Chicago Center
05:30PM 40.4861 -89.6669 250° West 436 502 43,000  Level Chicago Center
05:31PM 40.4367 -89.8131 246° West 447 514 43,000  Level Chicago Center
05:32PM 40.3881 -89.9603 247° West 436 502 43,000  Level Chicago Center
05:33PM 40.3394 -90.1053 246° West 433 498 43,000  Level Chicago Center
05:34PM 40.2919 -90.2514 247° West 433 498 43,000  Level Chicago Center
05:35PM 40.2342 -90.4292 247° West 441 507 43,000  Level Chicago Center
05:36PM 40.1872 -90.5733 247° West 430 495 43,000  Level Chicago Center
05:37PM 40.1361 -90.7317 247° West 438 504 43,000  Level Chicago Center
05:38PM 40.0889 -90.8767 247° West 438 504 43,000  Level Chicago Center
05:39PM 40.0522 -90.9931 248° West 437 503 43,000  Level Kansas City Center
05:40PM 40.0111 -91.1417 250° West 438 504 43,000  Level Kansas City Center
05:41PM 39.9711 -91.2908 251° West 439 505 43,000  Level Kansas City Center
05:42PM 39.9203 -91.4708 250° West 442 509 43,000  Level Kansas City Center
05:43PM 39.8803 -91.6200 251° West 440 506 43,000  Level Kansas City Center
05:44PM 39.8411 -91.7681 251° West 438 504 43,000  Level Kansas City Center
05:45PM 39.8003 -91.9144 250° West 434 499 43,000  Level Kansas City Center
05:46PM 39.7581 -92.0614 250° West 434 499 43,000  Level Kansas City Center
05:48PM 39.7142 -92.2081 249° West 436 502 43,000  Level Kansas City Center
05:49PM 39.6622 -92.3822 249° West 433 498 43,000  Level Kansas City Center
05:50PM 39.6183 -92.5256 248° West 430 495 43,000  Level Kansas City Center
05:51PM 39.5747 -92.6683 248° West 429 494 43,000  Level Kansas City Center
05:52PM 39.5303 -92.8103 248° West 427 491 43,000  Level Kansas City Center
05:53PM 39.4867 -92.9497 248° West 422 486 43,000  Level Kansas City Center
05:54PM 39.4333 -93.1233 248° West 432 497 43,000  Level Kansas City Center
05:55PM 39.3911 -93.2692 250° West 435 501 43,000  Level Kansas City Center
05:56PM 39.3506 -93.4139 250° West 432 497 43,000  Level Kansas City Center
05:57PM 39.3092 -93.5575 250° West 431 496 43,000  Level Kansas City Center
05:58PM 39.2603 -93.7197 249° West 426 490 43,000  Level Kansas City Center
05:59PM 39.2189 -93.8556 249° West 426 490 43,000  Level Kansas City Center
06:00PM 39.1689 -94.0128 248° West 423 487 43,000  Level Kansas City Center
06:01PM 39.1267 -94.1453 248° West 418 481 43,000  Level Kansas City Center
06:02PM 39.0786 -94.3006 248° West 416 479 43,000  Level Kansas City Center
06:03PM 39.0383 -94.4328 249° West 414 476 43,000  Level Kansas City Center
06:04PM 38.9914 -94.5858 249° West 412 474 43,000 -120 Level Kansas City Center
06:05PM 38.9492 -94.7178 248° West 414 476 42,800 -840 Descending Kansas City Center
06:06PM 38.9008 -94.8739 248° West 419 482 41,300 -1,380 Descending Kansas City Center
06:07PM 38.8558 -95.0086 247° West 425 489 40,000 -1,320 Descending Kansas City Center
06:08PM 38.8142 -95.1406 248° West 415 478 38,600 -1,020 Descending Kansas City Center
06:09PM 38.7647 -95.2961 248° West 420 483 38,000 -300 Descending Kansas City Center
06:10PM 38.7197 -95.4303 247° West 427 491 38,000  Level Kansas City Center
06:11PM 38.6678 -95.5861 247° West 426 490 38,000 -660 Level Kansas City Center
06:12PM 38.6239 -95.7156 247° West 416 479 36,700 -2,040 Descending Kansas City Center
06:13PM 38.5703 -95.8739 247° West 432 497 33,900 -2,280 Descending Kansas City Center
06:14PM 38.5272 -96.0081 248° West 429 494 32,100 -1,440 Descending Kansas City Center
06:15PM 38.4844 -96.1422 248° West 424 488 31,000 -1,020 Descending Kansas City Center
06:17PM 38.4314 -96.2958 246° West 423 487 30,100 -1,920 Descending Kansas City Center
06:18PM 38.3864 -96.4281 247° West 424 488 27,100 -3,360 Descending Kansas City Center
06:19PM 38.3353 -96.5642 244° Southwest 430 495 23,200 -4,140 Descending Kansas City Center
06:20PM 38.2478 -96.6817 227° Southwest 384 442 18,500 -4,140 Descending Kansas City Center
06:20PM 38.2111 -96.7233 222° Southwest 367 422 16,900 -3,720 Descending Kansas City Center
06:21PM 38.1753 -96.7719 227° Southwest 366 421 14,800 -3,000 Descending Kansas City Center
06:22PM 38.1169 -96.8508 227° Southwest 326 375 12,700 -2,160 Descending Kansas City Center
06:23PM 38.0581 -96.9356 229° Southwest 301 346 10,300 -2,100 Descending Kansas City Center
06:24PM 37.9981 -97.0058 223° Southwest 286 329 8,300 -2,040 Descending Kansas City Center
06:25PM 37.9494 -97.0667 225° Southwest 264 304 6,600 -1,260 Descending Kansas City Center
06:26PM 37.8950 -97.1311 223° Southwest 263 303 5,900 -480 Descending Kansas City Center
06:26PM 37.8933 -97.1364 248° West 269 310 6,000 60 Climbing Kansas City Center
06:27PM 37.8428 -97.1978 224° Southwest 267 307 6,000  Level Kansas City Center
06:27PM 37.8308 -97.2150 229° Southwest 265 305 6,000 -840 Level Kansas City Center
06:28PM 37.7775 -97.2608 214° Southwest 252 290 5,100 -1,140 Descending Kansas City Center
06:29PM 37.7081 -97.3036 206° Southwest 256 295 3,900 -540 Descending Kansas City Center
06:30PM 37.6353 -97.3322 197° South 263 303 4,000  Climbing Kansas City Center
06:31PM 37.5622 -97.3581 196° South 251 289 4,000  Level Kansas City Center
06:32PM 37.5156 -97.3758 197° South 199 229 4,000  Level Kansas City Center
06:32PM 37.5086 -97.3778 193° South 239 275 4,000  Level Kansas City Center
06:33PM 37.4614 -97.4000 200° South 204 235 4,000 -240 Level Kansas City Center
06:33PM 37.4525 -97.4194 240° Southwest 222 255 3,800 -840 Descending Kansas City Center
06:34PM 37.4497 -97.4756 266° West 236 272 3,200 -720 Descending Kansas City Center
06:34PM 37.4592 -97.4964 300° West 226 260 3,100 -420 Descending Kansas City Center
06:35PM 37.4936 -97.4953 North 179 206 2,800 -240 Descending Kansas City Center
06:35PM 37.5061 -97.4903 18° North 193 222 2,900 180 Climbing Kansas City Center
06:36PM 37.5317 -97.4761 24° Northeast 155 178 3,000 60 Climbing Kansas City Center
06:36PM 37.5489 -97.4706 14° North 176 203 3,000 -420 Level Kansas City Center
06:37PM 37.5722 -97.4594 21° North 144 166 2,600 -540 Descending Kansas City Center
06:37PM 37.5856 -97.4525 22° Northeast 160 184 2,500 -540 Descending Kansas City Center
06:38PM 37.6083 -97.4433 18° North 114 131 2,000 -600 Descending Kansas City Center
06:38PM 37.6156 -97.4394 23° Northeast 137 158 1,900 -600 Descending Kansas City Center
06:39PM 37.6325 -97.4317 20° North 102 117 1,500 -420 Descending Kansas City Center
06:39PM 37.6472 -97.4258 17° North 125 144 1,500  Level Kansas City Center